Time;durP1;ratioP1;P1;durP2;ratioP2;P2;SDS_P1;SDS_P2;PMS_P1;PMS_P2;Temp;Humidity;BMP_temperature;BMP_pressure;BME280_temperature;BME280_humidity;BME280_pressure;Samples;Min_cycle;Max_cycle;Signal;HPM_P1;HPM_P2
2023/03/23 00:02:25;;;;;;;26.00;3.80;;;;;;;10.37;100.00;99379.66;5071623;27;20054;-79
2023/03/23 00:04:51;;;;;;;25.27;4.03;;;;;;;10.40;100.00;99379.00;5104862;27;20042;-79
2023/03/23 00:07:20;;;;;;;22.35;3.90;;;;;;;10.38;100.00;99379.31;5070049;28;20020;-80
2023/03/23 00:09:53;;;;;;;27.88;3.90;;;;;;;10.37;100.00;99382.44;5080175;28;20040;-79
2023/03/23 00:12:32;;;;;;;;;;;;;;;10.35;100.00;99385.50;5066405;28;20468;-79
2023/03/23 00:15:01;;;;;;;22.13;4.25;;;;;;;10.35;100.00;99396.63;5085597;28;19907;-79
2023/03/23 00:17:28;;;;;;;21.52;3.42;;;;;;;10.34;100.00;99383.88;5094438;28;20020;-79
2023/03/23 00:19:53;;;;;;;23.73;3.45;;;;;;;10.33;100.00;99381.41;5052748;27;20067;-79
2023/03/23 00:22:20;;;;;;;27.50;4.88;;;;;;;10.35;100.00;99377.19;5070587;27;20486;-79
2023/03/23 00:24:46;;;;;;;21.23;4.03;;;;;;;10.35;100.00;99374.41;5059349;28;20538;-79
2023/03/23 00:27:14;;;;;;;28.77;5.25;;;;;;;10.35;100.00;99373.59;5054405;27;20019;-79
2023/03/23 00:29:40;;;;;;;34.30;4.13;;;;;;;10.33;100.00;99382.22;5071056;27;20027;-79
2023/03/23 00:32:06;;;;;;;26.15;4.55;;;;;;;10.34;100.00;99389.44;5086140;28;20032;-79
2023/03/23 00:34:32;;;;;;;28.60;4.20;;;;;;;10.32;100.00;99391.69;5087194;27;20061;-79
2023/03/23 00:36:58;;;;;;;28.02;4.68;;;;;;;10.34;100.00;99389.44;5121136;27;20035;-79
2023/03/23 00:39:25;;;;;;;23.38;4.28;;;;;;;10.32;100.00;99394.47;5104013;27;20078;-79
2023/03/23 00:41:51;;;;;;;27.67;4.07;;;;;;;10.33;100.00;99396.09;5077550;28;20476;-78
2023/03/23 00:44:16;;;;;;;20.85;4.35;;;;;;;10.34;100.00;99391.41;5095592;27;20072;-79
2023/03/23 00:46:48;;;;;;;17.13;3.65;;;;;;;10.34;100.00;99392.22;5086491;27;20023;-79
2023/03/23 00:49:17;;;;;;;20.35;3.35;;;;;;;10.34;100.00;99381.09;5121296;27;20039;-79
2023/03/23 00:51:42;;;;;;;27.17;3.78;;;;;;;10.33;100.00;99393.31;5080871;28;20099;-79
2023/03/23 00:54:08;;;;;;;25.17;4.20;;;;;;;10.35;100.00;99391.06;5099613;28;20031;-79
2023/03/23 00:56:34;;;;;;;23.17;3.60;;;;;;;10.34;100.00;99383.06;5069505;27;20114;-79
2023/03/23 00:58:59;;;;;;;23.13;3.67;;;;;;;10.35;100.00;99371.63;5085177;27;20102;-79
2023/03/23 01:01:25;;;;;;;19.40;3.53;;;;;;;10.34;100.00;99383.88;5069667;27;20068;-79
2023/03/23 01:03:52;;;;;;;19.33;4.10;;;;;;;10.33;100.00;99368.34;5086738;27;20151;-78
2023/03/23 01:06:18;;;;;;;19.00;3.47;;;;;;;10.35;100.00;99381.91;5083507;28;20028;-79
2023/03/23 01:08:46;;;;;;;22.52;4.00;;;;;;;10.33;100.00;99382.22;5062268;27;20023;-79
2023/03/23 01:11:15;;;;;;;20.20;3.45;;;;;;;10.34;100.00;99394.16;5070620;28;20473;-79
2023/03/23 01:13:44;;;;;;;17.35;3.10;;;;;;;10.35;100.00;99382.72;5073492;27;20034;-79
2023/03/23 01:16:10;;;;;;;18.77;3.15;;;;;;;10.31;100.00;99389.22;5067596;28;20401;-79
2023/03/23 01:18:35;;;;;;;18.00;3.10;;;;;;;10.30;100.00;99391.19;5073679;27;20019;-78
2023/03/23 01:21:12;;;;;;;16.42;3.40;;;;;;;10.31;100.00;99383.69;5086552;27;20034;-79
2023/03/23 01:23:38;;;;;;;17.88;3.30;;;;;;;10.34;100.00;99388.63;5102659;27;20035;-79
2023/03/23 01:26:08;;;;;;;13.77;2.85;;;;;;;10.33;100.00;99390.56;5077646;27;20028;-79
2023/03/23 01:28:34;;;;;;;16.17;2.83;;;;;;;10.30;100.00;99380.09;5086053;27;20099;-79
2023/03/23 01:31:08;;;;;;;16.08;2.92;;;;;;;10.32;100.00;99380.59;5077609;28;20028;-79
2023/03/23 01:33:33;;;;;;;14.27;2.88;;;;;;;10.32;100.00;99386.16;5066030;27;20019;-79
2023/03/23 01:36:04;;;;;;;23.10;3.78;;;;;;;10.33;100.00;99376.69;5060468;28;20495;-79
2023/03/23 01:38:30;;;;;;;25.80;3.13;;;;;;;10.34;100.00;99378.34;5099397;27;20027;-79
2023/03/23 01:40:56;;;;;;;18.38;3.28;;;;;;;10.31;100.00;99367.88;5102585;27;20080;-79
2023/03/23 01:43:21;;;;;;;13.65;2.85;;;;;;;10.30;100.00;99363.44;5081492;28;20036;-79
2023/03/23 01:45:47;;;;;;;17.80;3.13;;;;;;;10.31;100.00;99364.25;5065865;27;20029;-79
2023/03/23 01:48:22;;;;;;;14.55;2.65;;;;;;;10.32;100.00;99372.28;5085052;27;20570;-79
2023/03/23 01:51:08;;;;;;;17.77;3.50;;;;;;;10.32;100.00;99375.06;5102598;27;20027;-79
2023/03/23 01:53:40;;;;;;;23.02;3.80;;;;;;;10.30;100.00;99371.78;5085218;27;20034;-79
2023/03/23 01:56:06;;;;;;;20.10;3.42;;;;;;;10.28;100.00;99382.41;5069351;27;20023;-79
2023/03/23 01:58:33;;;;;;;16.45;3.70;;;;;;;10.27;100.00;99377.97;5085231;27;20034;-79
2023/03/23 02:01:00;;;;;;;17.85;3.33;;;;;;;10.29;100.00;99375.69;5102238;27;20030;-79
2023/03/23 02:03:26;;;;;;;16.98;3.08;;;;;;;10.25;100.00;99369.94;5098244;28;20058;-79
2023/03/23 02:05:51;;;;;;;12.73;2.90;;;;;;;10.25;100.00;99369.94;5097554;27;20387;-79
2023/03/23 02:08:18;;;;;;;20.88;3.50;;;;;;;10.26;100.00;99362.44;5084621;27;20429;-78
2023/03/23 02:10:43;;;;;;;15.00;3.65;;;;;;;10.25;100.00;99366.31;5087792;27;20034;-78
2023/03/23 02:13:09;;;;;;;14.70;3.60;;;;;;;10.22;100.00;99355.88;5098381;28;20032;-79
2023/03/23 02:15:44;;;;;;;18.10;3.35;;;;;;;10.24;100.00;99373.03;5100487;27;20038;-78
2023/03/23 02:18:10;;;;;;;20.85;3.00;;;;;;;10.23;100.00;99382.50;5085027;27;20064;-79
2023/03/23 02:20:44;;;;;;;18.10;3.13;;;;;;;10.23;100.00;99372.22;5118703;27;20023;-79
2023/03/23 02:23:25;;;;;;;21.05;3.47;;;;;;;10.20;100.00;99361.75;5136709;27;20027;-79
2023/03/23 02:26:25;;;;;;;15.23;3.38;;;;;;;10.22;100.00;99362.25;5136751;27;20031;-79
2023/03/23 02:29:02;;;;;;;16.08;3.40;;;;;;;10.23;100.00;99372.22;5100116;27;20036;-79
2023/03/23 02:31:55;;;;;;;15.43;2.90;;;;;;;10.21;100.00;99359.78;5098126;28;20035;-80
2023/03/23 02:34:30;;;;;;;;;;;;;;;10.20;100.00;99364.53;5109117;27;20046;-79
2023/03/23 02:37:00;;;;;;;21.52;3.33;;;;;;;10.20;100.00;99370.06;5097940;28;19915;-78
2023/03/23 02:39:34;;;;;;;16.70;3.03;;;;;;;10.21;100.00;99371.69;5093148;27;20038;-79
2023/03/23 02:42:07;;;;;;;19.38;3.67;;;;;;;10.20;100.00;99363.72;5101144;27;20023;-79
2023/03/23 02:44:33;;;;;;;;;;;;;;;10.22;100.00;99369.75;5101727;27;20118;-79
2023/03/23 02:46:59;;;;;;;19.55;3.15;;;;;;;10.22;100.00;99370.59;5097771;28;19955;-78
2023/03/23 02:49:25;;;;;;;20.85;3.42;;;;;;;10.22;100.00;99364.19;5081419;28;20020;-79
2023/03/23 02:51:50;;;;;;;15.18;3.20;;;;;;;10.20;100.00;99361.75;5084102;27;20504;-79
2023/03/23 02:54:16;;;;;;;17.27;3.42;;;;;;;10.21;100.00;99370.88;5063948;27;20028;-79
2023/03/23 02:56:42;;;;;;;23.92;3.50;;;;;;;10.18;100.00;99368.75;5064106;28;20648;-79
2023/03/23 02:59:07;;;;;;;13.07;2.97;;;;;;;10.19;100.00;99378.72;5098945;27;20031;-79
2023/03/23 03:01:33;;;;;;;20.58;3.25;;;;;;;10.16;100.00;99365.47;5063926;28;20019;-78
2023/03/23 03:04:00;;;;;;;23.40;3.55;;;;;;;10.15;100.00;99367.44;5130039;27;20035;-79
2023/03/23 03:06:32;;;;;;;20.52;3.75;;;;;;;10.17;100.00;99364.31;5067942;27;20031;-78
2023/03/23 03:09:24;;;;;;;26.95;4.05;;;;;;;10.16;100.00;99371.84;5100496;27;20052;-78
2023/03/23 03:11:52;;;;;;;25.58;3.47;;;;;;;10.12;100.00;99367.25;5136046;27;20042;-79
2023/03/23 03:14:26;;;;;;;25.30;3.47;;;;;;;10.14;100.00;99371.38;5080928;28;20043;-79
2023/03/23 03:17:20;;;;;;;18.58;3.53;;;;;;;10.13;100.00;99366.13;5094620;28;20110;-80
2023/03/23 03:19:48;;;;;;;24.48;3.40;;;;;;;10.12;100.00;99348.66;5075904;28;20035;-80
2023/03/23 03:22:13;;;;;;;19.70;3.33;;;;;;;10.11;100.00;99357.28;5100304;28;20164;-80
2023/03/23 03:24:40;;;;;;;15.10;3.08;;;;;;;10.10;100.00;99358.44;5083058;28;20063;-79
2023/03/23 03:27:09;;;;;;;22.88;4.13;;;;;;;10.11;100.00;99357.28;5083882;28;20087;-79
2023/03/23 03:29:37;;;;;;;21.98;3.33;;;;;;;10.09;100.00;99348.50;5101464;28;20523;-80
2023/03/23 03:32:07;;;;;;;21.67;3.42;;;;;;;10.08;100.00;99353.19;5084435;28;20024;-79
2023/03/23 03:34:33;;;;;;;15.35;3.65;;;;;;;10.06;100.00;99350.75;5101544;28;20031;-80
2023/03/23 03:36:59;;;;;;;17.00;3.50;;;;;;;10.06;100.00;99356.31;5079662;28;20238;-79
2023/03/23 03:39:25;;;;;;;17.73;3.22;;;;;;;10.03;100.00;99350.59;5092259;28;20023;-80
2023/03/23 03:41:50;;;;;;;20.70;3.17;;;;;;;10.01;100.00;99348.13;5067471;28;20141;-79
2023/03/23 03:44:15;;;;;;;20.08;3.58;;;;;;;10.00;100.00;99352.03;5092358;28;20034;-79
2023/03/23 03:46:41;;;;;;;25.58;3.50;;;;;;;10.02;100.00;99349.75;5083730;28;20042;-79
2023/03/23 03:49:08;;;;;;;16.80;3.38;;;;;;;10.00;100.00;99349.25;5100889;28;20031;-80
2023/03/23 03:51:34;;;;;;;17.20;3.13;;;;;;;10.02;100.00;99348.94;5083910;28;20467;-80
2023/03/23 03:54:00;;;;;;;19.85;3.72;;;;;;;10.00;100.00;99345.66;5094919;28;20023;-80
2023/03/23 03:56:26;;;;;;;22.42;3.45;;;;;;;10.01;100.00;99347.31;5097150;28;20030;-80
2023/03/23 03:58:51;;;;;;;18.58;3.40;;;;;;;9.98;100.00;99351.53;5097295;28;20032;-80
2023/03/23 04:01:18;;;;;;;20.08;3.53;;;;;;;9.98;100.00;99361.81;5066786;28;20027;-79
2023/03/23 04:03:44;;;;;;;20.30;3.58;;;;;;;9.96;100.00;99362.13;5096965;28;20024;-80
2023/03/23 04:06:09;;;;;;;18.20;3.50;;;;;;;9.95;100.00;99357.72;5096970;28;20038;-79
2023/03/23 04:08:35;;;;;;;20.23;3.17;;;;;;;9.97;100.00;99352.69;5097143;28;20032;-80
2023/03/23 04:11:01;;;;;;;19.13;3.60;;;;;;;9.95;100.00;99354.94;5096911;28;20055;-80
2023/03/23 04:13:26;;;;;;;19.92;3.33;;;;;;;9.98;100.00;99354.31;5080541;28;20032;-80
2023/03/23 04:15:52;;;;;;;20.73;4.10;;;;;;;9.99;100.00;99358.69;5074723;28;20031;-79
2023/03/23 04:18:17;;;;;;;16.15;2.70;;;;;;;9.99;100.00;99366.22;5100607;28;20023;-79
2023/03/23 04:20:47;;;;;;;23.77;3.38;;;;;;;9.97;100.00;99354.59;5100279;28;20027;-79
2023/03/23 04:23:21;;;;;;;18.90;3.10;;;;;;;9.97;100.00;99360.16;5083943;28;20042;-79
2023/03/23 04:25:51;;;;;;;22.42;3.35;;;;;;;9.98;100.00;99354.31;5064397;28;20057;-80
2023/03/23 04:28:18;;;;;;;14.57;2.97;;;;;;;9.99;100.00;99367.03;5082716;28;20119;-80
2023/03/23 04:30:44;;;;;;;24.48;3.63;;;;;;;10.00;100.00;99371.44;5066650;28;20031;-79
2023/03/23 04:33:14;;;;;;;24.17;3.95;;;;;;;9.97;100.00;99374.03;5064394;27;20034;-79
2023/03/23 04:35:45;;;;;;;24.90;4.22;;;;;;;10.00;100.00;99379.78;5087588;27;20034;-79
2023/03/23 04:38:12;;;;;;;17.02;3.83;;;;;;;9.99;100.00;99360.66;5087871;27;20046;-79
2023/03/23 04:40:38;;;;;;;15.98;3.13;;;;;;;10.01;100.00;99369.50;5070666;27;20030;-79
2023/03/23 04:43:05;;;;;;;20.55;3.38;;;;;;;9.99;100.00;99372.56;5088684;27;20027;-79
2023/03/23 04:45:31;;;;;;;19.90;2.97;;;;;;;9.97;100.00;99358.22;5104329;27;20039;-79
2023/03/23 04:47:57;;;;;;;20.60;3.92;;;;;;;9.99;100.00;99360.66;5103286;27;20039;-79
2023/03/23 04:50:24;;;;;;;13.75;2.55;;;;;;;10.01;100.00;99372.25;5089347;27;20027;-79
2023/03/23 04:52:51;;;;;;;27.15;3.85;;;;;;;10.02;100.00;99371.94;5086842;27;20038;-80
2023/03/23 04:55:17;;;;;;;22.13;3.42;;;;;;;10.01;100.00;99373.06;5100254;28;20126;-80
2023/03/23 04:57:42;;;;;;;21.52;3.40;;;;;;;10.01;100.00;99375.03;5079817;27;20022;-80
2023/03/23 05:00:16;;;;;;;24.77;4.00;;;;;;;10.01;100.00;99367.53;5093929;28;20551;-80
2023/03/23 05:02:46;;;;;;;21.25;3.90;;;;;;;10.01;100.00;99375.03;5116861;27;20023;-80
2023/03/23 05:05:12;;;;;;;23.27;3.95;;;;;;;10.03;100.00;99375.53;5084226;28;20035;-80
2023/03/23 05:07:38;;;;;;;25.02;4.18;;;;;;;10.02;100.00;99373.88;5097435;28;20031;-80
2023/03/23 05:10:05;;;;;;;19.73;3.67;;;;;;;10.04;100.00;99371.63;5102911;27;20023;-80
2023/03/23 05:12:30;;;;;;;18.30;3.60;;;;;;;10.07;100.00;99373.75;5086281;27;20034;-80
2023/03/23 05:14:56;;;;;;;25.58;4.07;;;;;;;10.07;100.00;99380.13;5083015;28;20031;-80
2023/03/23 05:17:23;;;;;;;25.00;3.78;;;;;;;10.09;100.00;99387.31;5065900;28;20034;-80
2023/03/23 05:19:50;;;;;;;18.65;3.70;;;;;;;10.07;100.00;99379.31;5104235;27;20031;-80
2023/03/23 05:22:15;;;;;;;19.88;4.25;;;;;;;10.07;100.00;99385.66;5086201;27;20382;-80
2023/03/23 05:24:42;;;;;;;23.67;3.55;;;;;;;10.10;100.00;99384.22;5069075;27;20019;-80
2023/03/23 05:27:09;;;;;;;30.73;4.10;;;;;;;10.08;100.00;99392.03;5097065;28;20035;-80
2023/03/23 05:29:36;;;;;;;21.67;3.30;;;;;;;10.10;100.00;99388.94;5074208;28;20027;-79
2023/03/23 05:32:05;;;;;;;15.57;3.30;;;;;;;10.12;100.00;99390.28;5082710;28;20489;-80
2023/03/23 05:34:32;;;;;;;23.85;3.75;;;;;;;10.13;100.00;99391.91;5086211;27;20027;-80
2023/03/23 05:37:01;;;;;;;18.27;3.53;;;;;;;10.12;100.00;99393.03;5066006;27;20026;-80
2023/03/23 05:39:27;;;;;;;25.52;3.72;;;;;;;10.13;100.00;99391.09;5103142;27;20015;-80
2023/03/23 05:41:53;;;;;;;19.55;3.35;;;;;;;10.13;100.00;99382.75;5086028;28;20026;-80
2023/03/23 05:44:18;;;;;;;19.65;3.85;;;;;;;10.10;100.00;99377.84;5111380;27;20514;-80
2023/03/23 05:46:44;;;;;;;16.42;2.78;;;;;;;10.10;100.00;99392.53;5101229;27;20458;-80
2023/03/23 05:49:10;;;;;;;18.13;3.20;;;;;;;10.12;100.00;99386.69;5085930;27;20031;-80
2023/03/23 05:51:35;;;;;;;24.42;3.55;;;;;;;10.12;100.00;99381.94;5068679;27;20026;-80
2023/03/23 05:54:01;;;;;;;20.40;3.35;;;;;;;10.11;100.00;99390.56;5081823;28;20028;-80
2023/03/23 05:56:27;;;;;;;16.50;3.53;;;;;;;10.12;100.00;99389.47;5081735;28;20023;-80
2023/03/23 05:58:54;;;;;;;19.23;3.25;;;;;;;10.09;100.00;99398.41;5085315;27;20054;-80
2023/03/23 06:01:19;;;;;;;16.98;3.25;;;;;;;10.11;100.00;99390.56;5102384;27;20031;-80
2023/03/23 06:03:45;;;;;;;22.10;3.60;;;;;;;10.11;100.00;99391.38;5068631;27;20023;-80
2023/03/23 06:06:11;;;;;;;19.25;3.25;;;;;;;10.12;100.00;99406.09;5068580;27;20031;-79
2023/03/23 06:08:37;;;;;;;23.23;3.60;;;;;;;10.11;100.00;99401.69;5084462;27;20130;-79
2023/03/23 06:11:03;;;;;;;21.15;4.00;;;;;;;10.12;100.00;99408.88;5068411;27;20023;-80
2023/03/23 06:13:29;;;;;;;22.27;3.85;;;;;;;10.12;100.00;99414.44;5085639;27;20534;-80
2023/03/23 06:15:57;;;;;;;22.38;3.42;;;;;;;10.12;100.00;99406.91;5094061;27;20031;-80
2023/03/23 06:18:23;;;;;;;22.98;4.03;;;;;;;10.11;100.00;99407.22;5068288;27;20038;-80
2023/03/23 06:20:49;;;;;;;19.77;2.90;;;;;;;10.10;100.00;99420.28;5068247;27;20391;-80
2023/03/23 06:23:14;;;;;;;21.58;3.50;;;;;;;10.11;100.00;99419.13;5084416;27;20057;-79
2023/03/23 06:25:40;;;;;;;25.38;3.90;;;;;;;10.11;100.00;99418.31;5068060;27;20444;-79
2023/03/23 06:28:06;;;;;;;23.95;4.45;;;;;;;10.11;100.00;99421.91;5064621;28;20027;-79
2023/03/23 06:30:31;;;;;;;20.92;3.40;;;;;;;10.12;100.00;99437.44;5099802;27;20027;-80
2023/03/23 06:32:57;;;;;;;25.08;5.03;;;;;;;10.13;100.00;99433.50;5081298;28;20103;-80
2023/03/23 06:35:23;;;;;;;31.77;4.60;;;;;;;10.14;100.00;99439.88;5081264;28;20028;-79
2023/03/23 06:37:48;;;;;;;24.77;4.63;;;;;;;10.13;100.00;99441.03;5093032;27;20023;-77
2023/03/23 06:40:14;;;;;;;22.70;3.92;;;;;;;10.11;100.00;99444.09;5080906;28;20376;-79
2023/03/23 06:42:39;;;;;;;23.50;4.00;;;;;;;10.12;100.00;99447.72;5075495;27;20031;-79
2023/03/23 06:45:05;;;;;;;21.27;3.63;;;;;;;10.14;100.00;99442.66;5097937;28;20031;-79
2023/03/23 06:47:31;;;;;;;27.10;3.97;;;;;;;10.17;100.00;99450.34;5109877;27;20043;-79
2023/03/23 06:49:57;;;;;;;21.05;3.90;;;;;;;10.18;100.00;99457.53;5080886;28;20035;-79
2023/03/23 06:52:23;;;;;;;26.33;4.20;;;;;;;10.16;100.00;99457.84;5067286;27;20032;-79
2023/03/23 06:54:49;;;;;;;21.20;4.18;;;;;;;10.17;100.00;99458.66;5084125;27;20651;-80
2023/03/23 06:57:15;;;;;;;37.22;5.68;;;;;;;10.21;100.00;99463.28;5100135;27;20051;-79
2023/03/23 06:59:41;;;;;;;36.47;5.05;;;;;;;10.23;100.00;99458.22;5101139;27;20023;-79
2023/03/23 07:02:11;;;;;;;30.08;4.00;;;;;;;10.24;100.00;99467.38;5101104;27;20034;-79
2023/03/23 07:04:40;;;;;;;27.38;4.25;;;;;;;10.25;100.00;99471.78;5084560;27;20042;-79
2023/03/23 07:07:07;;;;;;;27.80;3.95;;;;;;;10.27;100.00;99458.44;5079200;28;20031;-79
2023/03/23 07:09:33;;;;;;;33.15;5.35;;;;;;;10.29;100.00;99459.75;5116729;27;20028;-79
2023/03/23 07:11:59;;;;;;;29.88;5.25;;;;;;;10.32;100.00;99458.31;5097582;28;20078;-79
2023/03/23 07:14:24;;;;;;;25.10;3.90;;;;;;;10.32;100.00;99469.41;5100610;28;20023;-79
2023/03/23 07:16:49;;;;;;;30.05;4.40;;;;;;;10.34;100.00;99455.22;5097337;28;20028;-74
2023/03/23 07:19:16;;;;;;;31.67;4.63;;;;;;;10.36;100.00;99452.94;5067436;28;20015;-79
2023/03/23 07:21:41;;;;;;;26.92;4.57;;;;;;;10.36;100.00;99452.94;5080691;28;20084;-79
2023/03/23 07:24:11;;;;;;;22.92;4.53;;;;;;;10.37;100.00;99449.84;5100239;28;20027;-79
2023/03/23 07:26:37;;;;;;;27.73;4.43;;;;;;;10.41;100.00;99450.03;5073040;28;20020;-79
2023/03/23 07:29:02;;;;;;;27.38;4.25;;;;;;;10.43;100.00;99448.56;5080392;28;20049;-79
2023/03/23 07:31:28;;;;;;;32.92;4.63;;;;;;;10.48;100.00;99451.22;5080636;28;20609;-79
2023/03/23 07:33:53;;;;;;;40.00;5.65;;;;;;;10.51;100.00;99450.56;5083605;28;20027;-80
2023/03/23 07:36:20;;;;;;;34.08;4.95;;;;;;;10.57;100.00;99453.22;5100910;28;20510;-79
2023/03/23 07:38:45;;;;;;;31.25;4.93;;;;;;;10.58;100.00;99449.28;5060139;28;20019;-79
2023/03/23 07:41:10;;;;;;;27.13;5.00;;;;;;;10.61;100.00;99443.91;5083022;28;20470;-79
2023/03/23 07:43:36;;;;;;;29.52;4.53;;;;;;;10.68;100.00;99444.28;5067164;28;20038;-79
2023/03/23 07:46:01;;;;;;;32.40;4.63;;;;;;;10.71;100.00;99440.03;5080333;28;20043;-79
2023/03/23 07:48:27;;;;;;;34.85;5.68;;;;;;;10.78;100.00;99440.41;5099724;28;20051;-79
2023/03/23 07:50:53;;;;;;;31.20;6.35;;;;;;;10.81;100.00;99445.31;5100670;28;20052;-79
2023/03/23 07:53:18;;;;;;;28.27;4.55;;;;;;;10.87;100.00;99434.88;5079613;28;20096;-79
2023/03/23 07:55:44;;;;;;;34.63;5.50;;;;;;;10.91;100.00;99433.06;5097008;28;20036;-80
2023/03/23 07:58:09;;;;;;;35.55;4.40;;;;;;;10.97;100.00;99454.00;5063385;28;20475;-79
2023/03/23 08:00:35;;;;;;;36.30;4.88;;;;;;;11.03;100.00;99454.66;5109600;28;20031;-79
2023/03/23 08:03:02;;;;;;;30.80;5.55;;;;;;;11.08;100.00;99457.31;5097200;28;20027;-79
2023/03/23 08:05:28;;;;;;;34.95;5.07;;;;;;;11.11;100.00;99453.88;5076725;28;20020;-79
2023/03/23 08:07:54;;;;;;;37.38;6.15;;;;;;;11.19;100.00;99453.06;5083710;27;20020;-79
2023/03/23 08:10:21;;;;;;;38.80;5.75;;;;;;;11.23;100.00;99447.69;5084044;28;20039;-79
2023/03/23 08:12:49;;;;;;;37.38;5.10;;;;;;;11.26;100.00;99441.50;5085819;28;20023;-79
2023/03/23 08:15:15;;;;;;;33.40;4.95;;;;;;;11.31;100.00;99427.41;5060071;28;20034;-79
2023/03/23 08:17:40;;;;;;;38.85;5.75;;;;;;;11.32;100.00;99441.00;5100222;28;20027;-79
2023/03/23 08:20:09;;;;;;;34.35;4.63;;;;;;;11.37;100.00;99451.97;5096599;27;20113;-79
2023/03/23 08:22:35;;;;;;;35.90;5.38;;;;;;;11.38;100.00;99464.72;5087505;27;20106;-79
2023/03/23 08:25:03;;;;;;;36.38;5.68;;;;;;;11.39;100.00;99452.47;5103605;27;20434;-79
2023/03/23 08:27:29;;;;;;;35.88;5.30;;;;;;;11.41;100.00;99458.50;5085280;27;20047;-79
2023/03/23 08:29:54;;;;;;;37.17;5.07;;;;;;;11.41;100.00;99458.50;5087018;28;20152;-79
2023/03/23 08:32:20;;;;;;;41.20;5.63;;;;;;;11.41;100.00;99452.94;5103137;27;20031;-79
2023/03/23 08:34:45;;;;;;;37.58;5.65;;;;;;;11.44;100.00;99453.44;5086533;27;20038;-79
2023/03/23 08:37:11;;;;;;;40.85;7.55;;;;;;;11.47;100.00;99452.78;5082763;28;20100;-79
2023/03/23 08:39:37;;;;;;;39.25;5.50;;;;;;;11.50;100.00;99455.72;5117042;28;20026;-79
2023/03/23 08:42:03;;;;;;;41.35;5.80;;;;;;;11.52;100.00;99455.41;5077092;27;20019;-79
2023/03/23 08:44:29;;;;;;;34.50;6.43;;;;;;;11.54;100.00;99448.38;5087129;27;20047;-79
2023/03/23 08:46:56;;;;;;;36.53;5.88;;;;;;;11.57;100.00;99444.13;5066501;28;20101;-79
2023/03/23 08:49:22;;;;;;;41.75;6.65;;;;;;;11.61;100.00;99467.34;5097227;27;20480;-79
2023/03/23 08:51:48;;;;;;;43.22;6.60;;;;;;;11.64;100.00;99461.13;5086629;27;20023;-79
2023/03/23 08:54:13;;;;;;;41.67;5.47;;;;;;;11.64;100.00;99463.91;5099560;28;20030;-79
2023/03/23 08:56:39;;;;;;;37.92;6.18;;;;;;;11.67;100.00;99463.25;5099619;28;20707;-79
2023/03/23 08:59:04;;;;;;;34.45;5.43;;;;;;;11.68;100.00;99467.69;5099909;28;20030;-79
2023/03/23 09:01:30;;;;;;;31.77;5.47;;;;;;;11.68;100.00;99484.38;5099941;28;20122;-80
2023/03/23 09:03:55;;;;;;;36.28;5.35;;;;;;;11.69;100.00;99482.41;5082890;28;20527;-79
2023/03/23 09:06:21;;;;;;;45.78;6.13;;;;;;;11.71;100.00;99472.59;5069450;27;20031;-79
2023/03/23 09:08:47;;;;;;;33.15;5.00;;;;;;;11.74;100.00;99468.34;5086075;27;20107;-79
2023/03/23 09:11:12;;;;;;;45.72;5.85;;;;;;;11.77;100.00;99470.47;5092167;27;20480;-79
2023/03/23 09:13:38;;;;;;;35.67;5.65;;;;;;;11.78;100.00;99461.81;5118659;27;20050;-79
2023/03/23 09:16:05;;;;;;;37.55;6.07;;;;;;;11.80;100.00;99476.19;5081603;28;20032;-79
2023/03/23 09:18:32;;;;;;;46.47;6.43;;;;;;;11.80;100.00;99473.41;5086235;27;20030;-79
2023/03/23 09:20:58;;;;;;;34.20;5.22;;;;;;;11.81;100.00;99475.06;5085408;27;20473;-79
2023/03/23 09:23:24;;;;;;;33.65;5.82;;;;;;;11.81;100.00;99474.22;5065300;28;20030;-79
2023/03/23 09:25:51;;;;;;;38.35;5.65;;;;;;;11.82;100.00;99476.69;5086046;27;20381;-79
2023/03/23 09:28:16;;;;;;;28.88;5.88;;;;;;;11.82;100.00;99479.47;5099111;27;20396;-79
2023/03/23 09:30:43;;;;;;;44.65;6.25;;;;;;;11.84;100.00;99468.03;5100996;27;20020;-79
2023/03/23 09:33:09;;;;;;;31.27;5.53;;;;;;;11.85;100.00;99476.06;5086105;27;20114;-79
2023/03/23 09:35:36;;;;;;;30.00;5.75;;;;;;;11.89;100.00;99481.78;5082459;28;20028;-79
2023/03/23 09:38:02;;;;;;;31.27;5.20;;;;;;;11.94;100.00;99464.94;5085495;27;20501;-80
2023/03/23 09:40:49;;;;;;;31.48;5.07;;;;;;;11.95;100.00;99474.09;5086097;27;20027;-79
2023/03/23 09:43:23;;;;;;;34.78;5.57;;;;;;;11.99;100.00;99475.09;5066818;27;20027;-80
2023/03/23 09:46:07;;;;;;;31.40;4.70;;;;;;;12.01;100.00;99470.03;5119445;27;20045;-80
2023/03/23 09:48:36;;;;;;;29.33;5.70;;;;;;;12.03;100.00;99471.28;5086067;27;20050;-80
2023/03/23 09:51:21;;;;;;;30.20;5.05;;;;;;;12.04;100.00;99458.22;5102432;27;20043;-80
2023/03/23 09:53:53;;;;;;;22.83;4.65;;;;;;;12.06;100.00;99462.31;5100362;28;20030;-80
2023/03/23 09:56:19;;;;;;;29.67;4.72;;;;;;;12.07;100.00;99477.03;5098560;27;20023;-80
2023/03/23 09:58:55;;;;;;;30.05;3.92;;;;;;;12.07;100.00;99463.13;5085418;27;20015;-81
2023/03/23 10:01:48;;;;;;;26.45;4.75;;;;;;;12.08;100.00;99459.19;5088702;27;20091;-80
2023/03/23 10:04:32;;;;;;;22.58;3.80;;;;;;;12.10;100.00;99445.78;5098484;27;20043;-81
2023/03/23 10:07:13;;;;;;;23.25;3.33;;;;;;;12.15;100.00;99465.09;5137766;27;20120;-80
2023/03/23 10:09:39;;;;;;;22.20;4.07;;;;;;;12.23;100.00;99463.41;5085456;27;20027;-80
2023/03/23 10:12:14;;;;;;;21.17;4.05;;;;;;;12.29;100.00;99451.78;5081253;28;20039;-80
2023/03/23 10:15:01;;;;;;;22.38;4.18;;;;;;;12.38;100.00;99431.47;5119034;27;20027;-80
2023/03/23 10:17:27;;;;;;;26.25;4.88;;;;;;;12.47;100.00;99446.16;5118307;27;20042;-80
2023/03/23 10:20:17;;;;;;;32.03;4.32;;;;;;;12.56;100.00;99433.00;5098520;28;20020;-81
2023/03/23 10:23:01;;;;;;;27.70;4.95;;;;;;;12.62;100.00;99437.28;5117886;27;20119;-80
2023/03/23 10:25:29;;;;;;;29.65;5.45;;;;;;;12.68;100.00;99447.06;5094191;27;20038;-80
2023/03/23 10:28:17;;;;;;;26.83;4.57;;;;;;;12.78;100.00;99462.59;5101650;27;20028;-80
2023/03/23 10:30:48;;;;;;;24.17;3.83;;;;;;;12.84;100.00;99466.00;5100055;27;20034;-76
2023/03/23 10:33:30;;;;;;;23.42;4.15;;;;;;;12.89;100.00;99469.41;5102171;27;20023;-80
2023/03/23 10:36:12;;;;;;;24.52;4.63;;;;;;;12.95;100.00;99472.84;5101327;27;20552;-80
2023/03/23 10:39:01;;;;;;;24.03;4.00;;;;;;;13.05;100.00;99474.44;5088601;27;20027;-80
2023/03/23 10:41:27;;;;;;;22.55;4.20;;;;;;;13.07;100.00;99469.34;5122534;27;20034;-77
2023/03/23 10:43:54;;;;;;;26.52;4.32;;;;;;;13.12;100.00;99469.16;5067684;27;20035;-78
2023/03/23 10:46:48;;;;;;;26.17;4.57;;;;;;;13.14;100.00;99470.44;5082165;27;20084;-78
2023/03/23 10:49:19;;;;;;;22.23;4.07;;;;;;;13.22;100.00;99476.31;5103354;28;20475;-78
2023/03/23 10:51:59;;;;;;;23.05;3.92;;;;;;;13.29;100.00;99476.63;5072966;27;20030;-78
2023/03/23 10:54:27;;;;;;;22.73;4.28;;;;;;;13.38;100.00;99460.66;5094892;28;20110;-78
2023/03/23 10:56:53;;;;;;;21.38;3.50;;;;;;;13.44;100.00;99478.84;5106009;27;20122;-78
2023/03/23 10:59:26;;;;;;;18.10;4.30;;;;;;;13.52;100.00;99458.44;5075805;27;20034;-78
2023/03/23 11:01:54;;;;;;;24.70;3.80;;;;;;;13.56;100.00;99464.94;5080553;28;20023;-78
2023/03/23 11:04:20;;;;;;;24.00;3.65;;;;;;;13.64;100.00;99466.88;5105550;27;20033;-78
2023/03/23 11:06:49;;;;;;;27.75;4.43;;;;;;;13.63;100.00;99468.03;5083178;28;20031;-78
2023/03/23 11:09:19;;;;;;;29.27;3.97;;;;;;;13.64;100.00;99461.28;5070779;27;20031;-78
2023/03/23 11:11:50;;;;;;;18.20;3.65;;;;;;;13.63;100.00;99473.59;5101856;28;20046;-78
2023/03/23 11:14:15;;;;;;;22.98;4.68;;;;;;;13.61;100.00;99453.59;5089604;27;20043;-78
2023/03/23 11:16:49;;;;;;;26.10;4.55;;;;;;;13.59;100.00;99455.91;5117062;27;20037;-78
2023/03/23 11:19:20;;;;;;;20.88;4.65;;;;;;;13.56;100.00;99453.78;5073912;28;20031;-78
2023/03/23 11:21:47;;;;;;;22.38;4.18;;;;;;;13.52;100.00;99464.00;5097467;28;20028;-78
2023/03/23 11:24:13;;;;;;;25.23;5.13;;;;;;;13.51;100.00;99459.59;5080734;28;20034;-78
2023/03/23 11:26:39;;;;;;;24.80;3.75;;;;;;;13.49;100.00;99461.91;5097353;28;20540;-79